aviador You're here:

GCRR Decoded Metar

LANZAROTE in SPAIN
Report Time2018-02-18 21:30:00
UTC Time2018-02-18 22:00:16
Flight Rules vfr VFR
Wind020° at 09 kt
W.Decomp.*RWY 03: 9.0 kt HW 0.8 kt LCW
W.Rank020° ranks 4
Current wind is below 020° avg. (11.8)
Visibility9999 m
Phenomena:N/A
Clouds:Few 030 Hf
Expected CloudBase > 2,400 ft AGL from Temp-Dew spread
CeilingNone
Temp16°C (ISA +1)
Dew Point10°C (68% RH)
AAT12.8°C
QNH1018 hPa
Density Alt276 ft
Elevation131 ft
Report Wrong Elevation
Raw Report
GCRR 182130Z 02009KT 9999 FEW030 16/10 Q1018=

Extra information for GCRR:More info

Metar Taf Metar & Taf Last 4 Metars F.Rules Stats Wind Profile Meteogram Temp Stats Airport Information Weather charts Add Link Nearby VenuesMetar ALERT Operation Metar Decoded Social comments